sensor_id;sensor_type;location;lat;lon;timestamp;P1;durP1;ratioP1;P2;durP2;ratioP2
35290;SDS011;21411;50.024;19.220;2023-09-30T00:00:19;21.90;;;19.20;;
35290;SDS011;21411;50.024;19.220;2023-09-30T00:03:06;23.50;;;20.80;;
35290;SDS011;21411;50.024;19.220;2023-09-30T00:05:32;25.60;;;20.80;;
35290;SDS011;21411;50.024;19.220;2023-09-30T00:07:59;24.30;;;21.70;;
35290;SDS011;21411;50.024;19.220;2023-09-30T00:10:25;25.00;;;22.30;;
35290;SDS011;21411;50.024;19.220;2023-09-30T00:12:52;24.10;;;21.70;;
35290;SDS011;21411;50.024;19.220;2023-09-30T00:15:18;24.60;;;22.00;;
35290;SDS011;21411;50.024;19.220;2023-09-30T00:17:44;23.30;;;20.70;;
35290;SDS011;21411;50.024;19.220;2023-09-30T00:20:11;23.50;;;21.10;;
35290;SDS011;21411;50.024;19.220;2023-09-30T00:22:37;23.90;;;21.00;;
35290;SDS011;21411;50.024;19.220;2023-09-30T00:25:04;23.20;;;21.00;;
35290;SDS011;21411;50.024;19.220;2023-09-30T00:27:31;23.70;;;20.30;;
35290;SDS011;21411;50.024;19.220;2023-09-30T00:29:57;22.00;;;19.70;;
35290;SDS011;21411;50.024;19.220;2023-09-30T00:32:24;22.40;;;20.10;;
35290;SDS011;21411;50.024;19.220;2023-09-30T00:34:51;22.90;;;19.90;;
35290;SDS011;21411;50.024;19.220;2023-09-30T00:37:18;20.60;;;18.40;;
35290;SDS011;21411;50.024;19.220;2023-09-30T00:39:44;21.40;;;19.20;;
35290;SDS011;21411;50.024;19.220;2023-09-30T00:42:11;21.00;;;19.00;;
35290;SDS011;21411;50.024;19.220;2023-09-30T00:44:37;22.70;;;20.30;;
35290;SDS011;21411;50.024;19.220;2023-09-30T00:47:04;22.10;;;19.90;;
35290;SDS011;21411;50.024;19.220;2023-09-30T00:49:30;20.30;;;18.20;;
35290;SDS011;21411;50.024;19.220;2023-09-30T00:51:57;20.30;;;18.30;;
35290;SDS011;21411;50.024;19.220;2023-09-30T00:54:24;20.30;;;18.40;;
35290;SDS011;21411;50.024;19.220;2023-09-30T00:56:52;20.90;;;18.90;;
35290;SDS011;21411;50.024;19.220;2023-09-30T00:59:24;19.40;;;17.40;;
35290;SDS011;21411;50.024;19.220;2023-09-30T01:01:52;20.20;;;18.30;;
35290;SDS011;21411;50.024;19.220;2023-09-30T01:04:20;23.20;;;20.70;;
35290;SDS011;21411;50.024;19.220;2023-09-30T01:06:47;21.50;;;19.30;;
35290;SDS011;21411;50.024;19.220;2023-09-30T01:09:13;23.70;;;21.10;;
35290;SDS011;21411;50.024;19.220;2023-09-30T01:11:40;23.90;;;21.40;;
35290;SDS011;21411;50.024;19.220;2023-09-30T01:17:04;24.50;;;22.00;;
35290;SDS011;21411;50.024;19.220;2023-09-30T01:19:35;25.50;;;22.80;;
35290;SDS011;21411;50.024;19.220;2023-09-30T01:22:01;28.10;;;22.70;;
35290;SDS011;21411;50.024;19.220;2023-09-30T01:24:41;25.50;;;22.80;;
35290;SDS011;21411;50.024;19.220;2023-09-30T01:27:08;26.10;;;23.30;;
35290;SDS011;21411;50.024;19.220;2023-09-30T01:29:35;27.20;;;24.30;;
35290;SDS011;21411;50.024;19.220;2023-09-30T01:32:04;24.00;;;21.50;;
35290;SDS011;21411;50.024;19.220;2023-09-30T01:34:35;25.00;;;22.20;;
35290;SDS011;21411;50.024;19.220;2023-09-30T01:37:02;28.40;;;25.10;;
35290;SDS011;21411;50.024;19.220;2023-09-30T01:39:29;29.50;;;26.50;;
35290;SDS011;21411;50.024;19.220;2023-09-30T01:41:56;25.70;;;23.10;;
35290;SDS011;21411;50.024;19.220;2023-09-30T01:44:22;28.10;;;25.20;;
35290;SDS011;21411;50.024;19.220;2023-09-30T01:46:49;29.00;;;26.10;;
35290;SDS011;21411;50.024;19.220;2023-09-30T01:49:15;31.80;;;26.00;;
35290;SDS011;21411;50.024;19.220;2023-09-30T01:51:43;28.00;;;25.00;;
35290;SDS011;21411;50.024;19.220;2023-09-30T01:54:10;26.80;;;24.10;;
35290;SDS011;21411;50.024;19.220;2023-09-30T01:56:37;27.70;;;23.90;;
35290;SDS011;21411;50.024;19.220;2023-09-30T01:59:03;26.20;;;23.50;;
35290;SDS011;21411;50.024;19.220;2023-09-30T02:01:30;28.60;;;25.80;;
35290;SDS011;21411;50.024;19.220;2023-09-30T02:03:56;27.70;;;24.80;;
35290;SDS011;21411;50.024;19.220;2023-09-30T02:06:23;28.40;;;25.10;;
35290;SDS011;21411;50.024;19.220;2023-09-30T02:08:50;26.60;;;24.00;;
35290;SDS011;21411;50.024;19.220;2023-09-30T02:11:16;27.70;;;24.30;;
35290;SDS011;21411;50.024;19.220;2023-09-30T02:13:43;25.40;;;22.90;;
35290;SDS011;21411;50.024;19.220;2023-09-30T02:16:11;25.50;;;23.00;;
35290;SDS011;21411;50.024;19.220;2023-09-30T02:18:38;26.70;;;23.60;;
35290;SDS011;21411;50.024;19.220;2023-09-30T02:21:07;28.20;;;23.90;;
35290;SDS011;21411;50.024;19.220;2023-09-30T02:23:35;27.50;;;24.50;;
35290;SDS011;21411;50.024;19.220;2023-09-30T02:26:02;26.50;;;23.80;;
35290;SDS011;21411;50.024;19.220;2023-09-30T02:28:29;26.70;;;23.90;;
35290;SDS011;21411;50.024;19.220;2023-09-30T02:30:59;26.60;;;23.70;;
35290;SDS011;21411;50.024;19.220;2023-09-30T02:33:26;25.90;;;23.20;;
35290;SDS011;21411;50.024;19.220;2023-09-30T02:35:53;25.40;;;22.60;;
35290;SDS011;21411;50.024;19.220;2023-09-30T02:38:20;24.70;;;22.30;;
35290;SDS011;21411;50.024;19.220;2023-09-30T02:40:47;24.20;;;21.90;;
35290;SDS011;21411;50.024;19.220;2023-09-30T02:43:14;25.60;;;22.90;;
35290;SDS011;21411;50.024;19.220;2023-09-30T02:45:42;25.70;;;23.20;;
35290;SDS011;21411;50.024;19.220;2023-09-30T02:48:09;30.30;;;26.60;;
35290;SDS011;21411;50.024;19.220;2023-09-30T02:50:36;29.50;;;26.30;;
35290;SDS011;21411;50.024;19.220;2023-09-30T02:53:02;30.70;;;27.50;;
35290;SDS011;21411;50.024;19.220;2023-09-30T02:55:30;31.30;;;26.90;;
35290;SDS011;21411;50.024;19.220;2023-09-30T02:57:57;29.60;;;26.60;;
35290;SDS011;21411;50.024;19.220;2023-09-30T03:00:25;30.90;;;27.40;;
35290;SDS011;21411;50.024;19.220;2023-09-30T03:02:52;30.40;;;27.20;;
35290;SDS011;21411;50.024;19.220;2023-09-30T03:05:20;31.10;;;27.90;;
35290;SDS011;21411;50.024;19.220;2023-09-30T03:07:47;29.00;;;26.00;;
35290;SDS011;21411;50.024;19.220;2023-09-30T03:10:13;29.20;;;26.10;;
35290;SDS011;21411;50.024;19.220;2023-09-30T03:12:46;27.40;;;24.70;;
35290;SDS011;21411;50.024;19.220;2023-09-30T03:15:14;28.40;;;25.50;;
35290;SDS011;21411;50.024;19.220;2023-09-30T03:17:41;27.60;;;24.90;;
35290;SDS011;21411;50.024;19.220;2023-09-30T03:20:11;27.20;;;24.60;;
35290;SDS011;21411;50.024;19.220;2023-09-30T03:22:38;28.20;;;25.20;;
35290;SDS011;21411;50.024;19.220;2023-09-30T03:25:07;28.20;;;25.40;;
35290;SDS011;21411;50.024;19.220;2023-09-30T03:27:35;27.30;;;24.50;;
35290;SDS011;21411;50.024;19.220;2023-09-30T03:30:03;28.50;;;25.40;;
35290;SDS011;21411;50.024;19.220;2023-09-30T03:32:31;28.50;;;25.40;;
35290;SDS011;21411;50.024;19.220;2023-09-30T03:34:59;29.30;;;26.20;;
35290;SDS011;21411;50.024;19.220;2023-09-30T03:37:27;29.00;;;26.20;;
35290;SDS011;21411;50.024;19.220;2023-09-30T03:39:54;30.30;;;26.10;;
35290;SDS011;21411;50.024;19.220;2023-09-30T03:42:21;28.80;;;25.20;;
35290;SDS011;21411;50.024;19.220;2023-09-30T03:44:48;29.10;;;25.90;;
35290;SDS011;21411;50.024;19.220;2023-09-30T03:47:18;30.00;;;27.00;;
35290;SDS011;21411;50.024;19.220;2023-09-30T03:49:45;29.00;;;26.10;;
35290;SDS011;21411;50.024;19.220;2023-09-30T03:52:11;28.50;;;24.90;;
35290;SDS011;21411;50.024;19.220;2023-09-30T03:54:38;28.10;;;25.30;;
35290;SDS011;21411;50.024;19.220;2023-09-30T03:57:04;29.90;;;26.60;;
35290;SDS011;21411;50.024;19.220;2023-09-30T03:59:31;30.50;;;27.40;;
35290;SDS011;21411;50.024;19.220;2023-09-30T04:01:57;31.30;;;28.20;;
35290;SDS011;21411;50.024;19.220;2023-09-30T04:04:24;33.90;;;30.10;;
35290;SDS011;21411;50.024;19.220;2023-09-30T04:06:51;31.90;;;28.90;;
35290;SDS011;21411;50.024;19.220;2023-09-30T04:09:18;33.20;;;29.70;;
35290;SDS011;21411;50.024;19.220;2023-09-30T04:11:45;35.10;;;31.50;;
35290;SDS011;21411;50.024;19.220;2023-09-30T04:14:12;33.60;;;30.10;;
35290;SDS011;21411;50.024;19.220;2023-09-30T04:16:39;29.70;;;26.70;;
35290;SDS011;21411;50.024;19.220;2023-09-30T04:19:05;32.60;;;29.20;;
35290;SDS011;21411;50.024;19.220;2023-09-30T04:21:34;34.90;;;31.30;;
35290;SDS011;21411;50.024;19.220;2023-09-30T04:24:00;29.00;;;26.20;;
35290;SDS011;21411;50.024;19.220;2023-09-30T04:26:27;28.50;;;25.60;;
35290;SDS011;21411;50.024;19.220;2023-09-30T04:28:54;28.20;;;25.40;;
35290;SDS011;21411;50.024;19.220;2023-09-30T04:31:20;29.70;;;26.40;;
35290;SDS011;21411;50.024;19.220;2023-09-30T04:33:50;31.90;;;27.60;;
35290;SDS011;21411;50.024;19.220;2023-09-30T04:36:19;32.10;;;29.00;;
35290;SDS011;21411;50.024;19.220;2023-09-30T04:38:46;29.20;;;26.00;;
35290;SDS011;21411;50.024;19.220;2023-09-30T04:41:13;29.40;;;26.40;;
35290;SDS011;21411;50.024;19.220;2023-09-30T04:43:41;28.80;;;25.90;;
35290;SDS011;21411;50.024;19.220;2023-09-30T04:46:09;30.30;;;27.10;;
35290;SDS011;21411;50.024;19.220;2023-09-30T04:48:35;30.60;;;27.50;;
35290;SDS011;21411;50.024;19.220;2023-09-30T04:51:05;31.20;;;28.00;;
35290;SDS011;21411;50.024;19.220;2023-09-30T04:56:00;30.30;;;27.30;;
35290;SDS011;21411;50.024;19.220;2023-09-30T04:58:27;31.10;;;28.10;;
35290;SDS011;21411;50.024;19.220;2023-09-30T05:00:55;30.20;;;26.90;;
35290;SDS011;21411;50.024;19.220;2023-09-30T05:03:22;28.00;;;25.10;;
35290;SDS011;21411;50.024;19.220;2023-09-30T05:05:54;29.80;;;26.90;;
35290;SDS011;21411;50.024;19.220;2023-09-30T05:08:24;31.10;;;28.00;;
35290;SDS011;21411;50.024;19.220;2023-09-30T05:10:51;31.20;;;27.10;;
35290;SDS011;21411;50.024;19.220;2023-09-30T05:13:21;31.10;;;27.90;;
35290;SDS011;21411;50.024;19.220;2023-09-30T05:15:49;33.80;;;30.30;;
35290;SDS011;21411;50.024;19.220;2023-09-30T05:18:17;33.90;;;30.20;;
35290;SDS011;21411;50.024;19.220;2023-09-30T05:20:44;35.20;;;31.00;;
35290;SDS011;21411;50.024;19.220;2023-09-30T05:23:10;33.90;;;30.40;;
35290;SDS011;21411;50.024;19.220;2023-09-30T05:25:38;33.10;;;29.60;;
35290;SDS011;21411;50.024;19.220;2023-09-30T05:28:06;32.70;;;29.30;;
35290;SDS011;21411;50.024;19.220;2023-09-30T05:30:33;32.00;;;28.80;;
35290;SDS011;21411;50.024;19.220;2023-09-30T05:33:00;33.10;;;29.70;;
35290;SDS011;21411;50.024;19.220;2023-09-30T05:35:27;34.30;;;30.60;;
35290;SDS011;21411;50.024;19.220;2023-09-30T05:37:54;35.10;;;31.10;;
35290;SDS011;21411;50.024;19.220;2023-09-30T05:40:21;32.70;;;29.30;;
35290;SDS011;21411;50.024;19.220;2023-09-30T05:42:56;34.20;;;30.50;;
35290;SDS011;21411;50.024;19.220;2023-09-30T05:45:26;33.60;;;30.10;;
35290;SDS011;21411;50.024;19.220;2023-09-30T05:47:54;33.90;;;30.40;;
35290;SDS011;21411;50.024;19.220;2023-09-30T05:50:22;32.30;;;28.70;;
35290;SDS011;21411;50.024;19.220;2023-09-30T05:52:55;31.90;;;28.50;;
35290;SDS011;21411;50.024;19.220;2023-09-30T05:55:22;32.10;;;29.00;;
35290;SDS011;21411;50.024;19.220;2023-09-30T05:57:51;30.20;;;27.00;;
35290;SDS011;21411;50.024;19.220;2023-09-30T06:00:20;29.80;;;26.70;;
35290;SDS011;21411;50.024;19.220;2023-09-30T06:02:49;29.10;;;26.40;;
35290;SDS011;21411;50.024;19.220;2023-09-30T06:05:18;29.30;;;26.30;;
35290;SDS011;21411;50.024;19.220;2023-09-30T06:07:45;28.20;;;25.50;;
35290;SDS011;21411;50.024;19.220;2023-09-30T06:10:12;28.70;;;25.80;;
35290;SDS011;21411;50.024;19.220;2023-09-30T06:12:42;27.90;;;25.10;;
35290;SDS011;21411;50.024;19.220;2023-09-30T06:15:08;27.50;;;24.40;;
35290;SDS011;21411;50.024;19.220;2023-09-30T06:17:36;26.30;;;23.60;;
35290;SDS011;21411;50.024;19.220;2023-09-30T06:20:06;27.80;;;24.20;;
35290;SDS011;21411;50.024;19.220;2023-09-30T06:22:42;27.00;;;24.40;;
35290;SDS011;21411;50.024;19.220;2023-09-30T06:25:12;26.60;;;23.80;;
35290;SDS011;21411;50.024;19.220;2023-09-30T06:27:43;28.50;;;25.60;;
35290;SDS011;21411;50.024;19.220;2023-09-30T06:30:14;27.60;;;24.70;;
35290;SDS011;21411;50.024;19.220;2023-09-30T06:32:42;27.80;;;24.70;;
35290;SDS011;21411;50.024;19.220;2023-09-30T06:35:09;28.00;;;25.40;;
35290;SDS011;21411;50.024;19.220;2023-09-30T06:37:41;27.20;;;24.50;;
35290;SDS011;21411;50.024;19.220;2023-09-30T06:40:09;25.80;;;23.40;;
35290;SDS011;21411;50.024;19.220;2023-09-30T06:42:37;25.10;;;22.50;;
35290;SDS011;21411;50.024;19.220;2023-09-30T06:45:06;26.00;;;22.40;;
35290;SDS011;21411;50.024;19.220;2023-09-30T06:47:33;26.20;;;22.00;;
35290;SDS011;21411;50.024;19.220;2023-09-30T06:50:02;25.10;;;22.20;;
35290;SDS011;21411;50.024;19.220;2023-09-30T06:52:37;22.90;;;20.70;;
35290;SDS011;21411;50.024;19.220;2023-09-30T06:55:07;23.20;;;20.90;;
35290;SDS011;21411;50.024;19.220;2023-09-30T06:57:35;23.60;;;21.20;;
35290;SDS011;21411;50.024;19.220;2023-09-30T07:00:08;20.60;;;18.60;;
35290;SDS011;21411;50.024;19.220;2023-09-30T07:02:38;22.50;;;20.40;;
35290;SDS011;21411;50.024;19.220;2023-09-30T07:05:09;21.40;;;19.20;;
35290;SDS011;21411;50.024;19.220;2023-09-30T07:07:37;21.50;;;19.40;;
35290;SDS011;21411;50.024;19.220;2023-09-30T07:10:05;21.00;;;19.00;;
35290;SDS011;21411;50.024;19.220;2023-09-30T07:12:33;21.90;;;19.80;;
35290;SDS011;21411;50.024;19.220;2023-09-30T07:15:01;22.10;;;19.80;;
35290;SDS011;21411;50.024;19.220;2023-09-30T07:17:29;21.60;;;19.40;;
35290;SDS011;21411;50.024;19.220;2023-09-30T07:19:56;21.60;;;19.30;;
35290;SDS011;21411;50.024;19.220;2023-09-30T07:22:22;21.10;;;19.00;;
35290;SDS011;21411;50.024;19.220;2023-09-30T07:24:49;21.00;;;18.80;;
35290;SDS011;21411;50.024;19.220;2023-09-30T07:27:16;20.10;;;18.10;;
35290;SDS011;21411;50.024;19.220;2023-09-30T07:29:43;20.80;;;18.70;;
35290;SDS011;21411;50.024;19.220;2023-09-30T07:32:10;20.10;;;18.20;;
35290;SDS011;21411;50.024;19.220;2023-09-30T07:34:36;19.50;;;17.50;;
35290;SDS011;21411;50.024;19.220;2023-09-30T07:37:03;21.30;;;18.30;;
35290;SDS011;21411;50.024;19.220;2023-09-30T07:39:29;18.80;;;17.00;;
35290;SDS011;21411;50.024;19.220;2023-09-30T07:41:57;19.60;;;17.80;;
35290;SDS011;21411;50.024;19.220;2023-09-30T07:44:23;19.00;;;17.10;;
35290;SDS011;21411;50.024;19.220;2023-09-30T07:46:50;17.50;;;15.80;;
35290;SDS011;21411;50.024;19.220;2023-09-30T07:49:16;17.60;;;15.60;;
35290;SDS011;21411;50.024;19.220;2023-09-30T07:51:43;17.10;;;15.20;;
35290;SDS011;21411;50.024;19.220;2023-09-30T07:54:09;16.00;;;14.10;;
35290;SDS011;21411;50.024;19.220;2023-09-30T07:56:36;15.40;;;13.80;;
35290;SDS011;21411;50.024;19.220;2023-09-30T07:59:02;16.00;;;14.40;;
35290;SDS011;21411;50.024;19.220;2023-09-30T08:01:29;16.80;;;15.00;;
35290;SDS011;21411;50.024;19.220;2023-09-30T08:03:56;16.20;;;14.80;;
35290;SDS011;21411;50.024;19.220;2023-09-30T08:06:22;15.50;;;14.00;;
35290;SDS011;21411;50.024;19.220;2023-09-30T08:08:49;16.10;;;14.50;;
35290;SDS011;21411;50.024;19.220;2023-09-30T08:11:17;16.50;;;14.20;;
35290;SDS011;21411;50.024;19.220;2023-09-30T08:13:46;16.10;;;14.20;;
35290;SDS011;21411;50.024;19.220;2023-09-30T08:16:13;15.80;;;13.80;;
35290;SDS011;21411;50.024;19.220;2023-09-30T08:18:40;16.10;;;14.40;;
35290;SDS011;21411;50.024;19.220;2023-09-30T08:21:10;16.20;;;13.70;;
35290;SDS011;21411;50.024;19.220;2023-09-30T08:23:39;18.10;;;13.90;;
35290;SDS011;21411;50.024;19.220;2023-09-30T08:26:06;15.40;;;13.80;;
35290;SDS011;21411;50.024;19.220;2023-09-30T08:28:32;16.10;;;14.40;;
35290;SDS011;21411;50.024;19.220;2023-09-30T08:31:01;15.80;;;14.20;;
35290;SDS011;21411;50.024;19.220;2023-09-30T08:33:29;16.10;;;14.40;;
35290;SDS011;21411;50.024;19.220;2023-09-30T08:36:03;16.30;;;14.70;;
35290;SDS011;21411;50.024;19.220;2023-09-30T08:38:36;17.20;;;15.60;;
35290;SDS011;21411;50.024;19.220;2023-09-30T08:41:04;16.80;;;15.10;;
35290;SDS011;21411;50.024;19.220;2023-09-30T08:43:31;16.50;;;14.90;;
35290;SDS011;21411;50.024;19.220;2023-09-30T08:46:05;16.40;;;14.90;;
35290;SDS011;21411;50.024;19.220;2023-09-30T08:48:33;16.00;;;14.40;;
35290;SDS011;21411;50.024;19.220;2023-09-30T08:51:01;17.10;;;15.40;;
35290;SDS011;21411;50.024;19.220;2023-09-30T08:53:28;17.00;;;15.20;;
35290;SDS011;21411;50.024;19.220;2023-09-30T08:55:56;18.00;;;16.20;;
35290;SDS011;21411;50.024;19.220;2023-09-30T08:58:28;16.30;;;14.90;;
35290;SDS011;21411;50.024;19.220;2023-09-30T09:00:58;18.00;;;16.30;;
35290;SDS011;21411;50.024;19.220;2023-09-30T09:03:27;17.70;;;16.00;;
35290;SDS011;21411;50.024;19.220;2023-09-30T09:05:54;19.30;;;17.30;;
35290;SDS011;21411;50.024;19.220;2023-09-30T09:08:25;19.20;;;17.30;;
35290;SDS011;21411;50.024;19.220;2023-09-30T09:10:56;19.90;;;18.00;;
35290;SDS011;21411;50.024;19.220;2023-09-30T09:13:24;19.60;;;17.60;;
35290;SDS011;21411;50.024;19.220;2023-09-30T09:16:08;19.10;;;17.20;;
35290;SDS011;21411;50.024;19.220;2023-09-30T09:18:35;19.70;;;17.80;;
35290;SDS011;21411;50.024;19.220;2023-09-30T09:21:11;19.20;;;17.20;;
35290;SDS011;21411;50.024;19.220;2023-09-30T09:23:43;19.10;;;17.20;;
35290;SDS011;21411;50.024;19.220;2023-09-30T09:26:11;20.10;;;18.00;;
35290;SDS011;21411;50.024;19.220;2023-09-30T09:28:49;20.20;;;18.10;;
35290;SDS011;21411;50.024;19.220;2023-09-30T09:31:19;19.50;;;17.40;;
35290;SDS011;21411;50.024;19.220;2023-09-30T09:33:48;19.10;;;17.00;;
35290;SDS011;21411;50.024;19.220;2023-09-30T09:36:15;19.50;;;17.60;;
35290;SDS011;21411;50.024;19.220;2023-09-30T09:38:43;18.80;;;16.80;;
35290;SDS011;21411;50.024;19.220;2023-09-30T09:41:11;18.90;;;17.00;;
35290;SDS011;21411;50.024;19.220;2023-09-30T09:43:37;20.40;;;18.50;;
35290;SDS011;21411;50.024;19.220;2023-09-30T09:46:07;20.50;;;18.50;;
35290;SDS011;21411;50.024;19.220;2023-09-30T09:48:37;19.90;;;17.60;;
35290;SDS011;21411;50.024;19.220;2023-09-30T09:51:04;21.20;;;19.20;;
35290;SDS011;21411;50.024;19.220;2023-09-30T09:53:34;21.20;;;18.90;;
35290;SDS011;21411;50.024;19.220;2023-09-30T09:56:03;19.50;;;17.50;;
35290;SDS011;21411;50.024;19.220;2023-09-30T09:58:32;19.10;;;17.30;;
35290;SDS011;21411;50.024;19.220;2023-09-30T10:01:00;19.20;;;17.30;;
35290;SDS011;21411;50.024;19.220;2023-09-30T10:03:27;18.50;;;16.90;;
35290;SDS011;21411;50.024;19.220;2023-09-30T10:05:54;18.80;;;17.00;;
35290;SDS011;21411;50.024;19.220;2023-09-30T10:08:21;19.10;;;17.20;;
35290;SDS011;21411;50.024;19.220;2023-09-30T10:10:58;17.90;;;16.20;;
35290;SDS011;21411;50.024;19.220;2023-09-30T10:24:46;18.80;;;16.90;;
35290;SDS011;21411;50.024;19.220;2023-09-30T10:35:19;18.00;;;16.30;;
35290;SDS011;21411;50.024;19.220;2023-09-30T10:37:47;17.00;;;15.50;;
35290;SDS011;21411;50.024;19.220;2023-09-30T10:40:26;16.80;;;15.40;;
35290;SDS011;21411;50.024;19.220;2023-09-30T10:42:54;16.20;;;14.70;;
35290;SDS011;21411;50.024;19.220;2023-09-30T10:53:22;17.50;;;15.90;;
35290;SDS011;21411;50.024;19.220;2023-09-30T10:55:56;17.70;;;16.10;;
35290;SDS011;21411;50.024;19.220;2023-09-30T10:58:39;17.40;;;15.90;;
35290;SDS011;21411;50.024;19.220;2023-09-30T11:01:14;18.60;;;16.90;;
35290;SDS011;21411;50.024;19.220;2023-09-30T11:03:42;17.00;;;15.30;;
35290;SDS011;21411;50.024;19.220;2023-09-30T11:06:15;17.00;;;15.60;;
35290;SDS011;21411;50.024;19.220;2023-09-30T11:08:50;16.60;;;15.10;;
35290;SDS011;21411;50.024;19.220;2023-09-30T11:11:19;16.70;;;15.20;;
35290;SDS011;21411;50.024;19.220;2023-09-30T11:13:46;17.10;;;15.50;;
35290;SDS011;21411;50.024;19.220;2023-09-30T11:16:12;17.10;;;15.60;;
35290;SDS011;21411;50.024;19.220;2023-09-30T11:18:38;16.80;;;15.40;;
35290;SDS011;21411;50.024;19.220;2023-09-30T11:21:09;17.40;;;15.90;;
35290;SDS011;21411;50.024;19.220;2023-09-30T11:23:37;16.80;;;15.30;;
35290;SDS011;21411;50.024;19.220;2023-09-30T11:26:04;16.60;;;15.20;;
35290;SDS011;21411;50.024;19.220;2023-09-30T11:28:40;16.10;;;14.80;;
35290;SDS011;21411;50.024;19.220;2023-09-30T11:31:09;16.40;;;15.10;;
35290;SDS011;21411;50.024;19.220;2023-09-30T11:33:47;16.10;;;14.70;;
35290;SDS011;21411;50.024;19.220;2023-09-30T11:36:22;16.90;;;15.20;;
35290;SDS011;21411;50.024;19.220;2023-09-30T11:38:50;15.50;;;14.20;;
35290;SDS011;21411;50.024;19.220;2023-09-30T11:41:18;15.50;;;14.30;;
35290;SDS011;21411;50.024;19.220;2023-09-30T11:43:58;16.40;;;14.90;;
35290;SDS011;21411;50.024;19.220;2023-09-30T11:46:31;16.40;;;15.10;;
35290;SDS011;21411;50.024;19.220;2023-09-30T11:49:03;15.80;;;14.40;;
35290;SDS011;21411;50.024;19.220;2023-09-30T11:51:41;17.60;;;16.10;;
35290;SDS011;21411;50.024;19.220;2023-09-30T11:54:13;17.60;;;16.10;;
35290;SDS011;21411;50.024;19.220;2023-09-30T11:56:40;16.20;;;14.80;;
35290;SDS011;21411;50.024;19.220;2023-09-30T11:59:06;15.80;;;14.40;;
35290;SDS011;21411;50.024;19.220;2023-09-30T12:01:33;13.50;;;12.20;;
35290;SDS011;21411;50.024;19.220;2023-09-30T12:03:59;13.90;;;12.60;;
35290;SDS011;21411;50.024;19.220;2023-09-30T12:06:26;11.80;;;10.70;;
35290;SDS011;21411;50.024;19.220;2023-09-30T12:08:53;12.40;;;11.30;;
35290;SDS011;21411;50.024;19.220;2023-09-30T12:11:20;11.40;;;10.20;;
35290;SDS011;21411;50.024;19.220;2023-09-30T12:13:46;11.10;;;10.20;;
35290;SDS011;21411;50.024;19.220;2023-09-30T12:16:15;10.40;;;9.40;;
35290;SDS011;21411;50.024;19.220;2023-09-30T12:18:43;11.60;;;9.30;;
35290;SDS011;21411;50.024;19.220;2023-09-30T12:21:10;11.00;;;9.50;;
35290;SDS011;21411;50.024;19.220;2023-09-30T12:23:37;9.50;;;8.00;;
35290;SDS011;21411;50.024;19.220;2023-09-30T12:26:04;8.40;;;7.50;;
35290;SDS011;21411;50.024;19.220;2023-09-30T12:28:32;9.90;;;8.10;;
35290;SDS011;21411;50.024;19.220;2023-09-30T12:31:01;8.30;;;7.50;;
35290;SDS011;21411;50.024;19.220;2023-09-30T12:33:29;8.40;;;7.50;;
35290;SDS011;21411;50.024;19.220;2023-09-30T12:35:56;9.70;;;8.00;;
35290;SDS011;21411;50.024;19.220;2023-09-30T12:38:24;9.00;;;8.00;;
35290;SDS011;21411;50.024;19.220;2023-09-30T12:40:54;9.60;;;8.00;;
35290;SDS011;21411;50.024;19.220;2023-09-30T12:43:21;10.20;;;7.60;;
35290;SDS011;21411;50.024;19.220;2023-09-30T12:45:48;9.50;;;8.30;;
35290;SDS011;21411;50.024;19.220;2023-09-30T12:48:15;8.60;;;7.60;;
35290;SDS011;21411;50.024;19.220;2023-09-30T12:50:41;9.30;;;8.40;;
35290;SDS011;21411;50.024;19.220;2023-09-30T12:53:08;9.30;;;8.20;;
35290;SDS011;21411;50.024;19.220;2023-09-30T12:55:34;8.60;;;7.80;;
35290;SDS011;21411;50.024;19.220;2023-09-30T12:58:01;9.00;;;8.10;;
35290;SDS011;21411;50.024;19.220;2023-09-30T13:00:28;9.90;;;8.50;;
35290;SDS011;21411;50.024;19.220;2023-09-30T13:02:57;9.70;;;8.70;;
35290;SDS011;21411;50.024;19.220;2023-09-30T13:05:24;9.50;;;8.60;;
35290;SDS011;21411;50.024;19.220;2023-09-30T13:07:51;11.30;;;9.10;;
35290;SDS011;21411;50.024;19.220;2023-09-30T13:10:21;11.20;;;9.90;;
35290;SDS011;21411;50.024;19.220;2023-09-30T13:12:50;13.10;;;10.90;;
35290;SDS011;21411;50.024;19.220;2023-09-30T13:15:16;11.70;;;9.90;;
35290;SDS011;21411;50.024;19.220;2023-09-30T13:17:43;11.80;;;10.70;;
35290;SDS011;21411;50.024;19.220;2023-09-30T13:20:10;15.60;;;11.20;;
35290;SDS011;21411;50.024;19.220;2023-09-30T13:22:38;13.60;;;10.70;;
35290;SDS011;21411;50.024;19.220;2023-09-30T13:25:05;12.10;;;10.70;;
35290;SDS011;21411;50.024;19.220;2023-09-30T13:27:34;12.70;;;11.50;;
35290;SDS011;21411;50.024;19.220;2023-09-30T13:30:00;12.30;;;10.80;;
35290;SDS011;21411;50.024;19.220;2023-09-30T13:32:27;13.90;;;11.90;;
35290;SDS011;21411;50.024;19.220;2023-09-30T13:34:54;12.90;;;11.50;;
35290;SDS011;21411;50.024;19.220;2023-09-30T13:37:20;13.30;;;10.90;;
35290;SDS011;21411;50.024;19.220;2023-09-30T13:39:48;12.60;;;11.10;;
35290;SDS011;21411;50.024;19.220;2023-09-30T13:42:16;12.90;;;10.90;;
35290;SDS011;21411;50.024;19.220;2023-09-30T13:44:43;12.00;;;10.70;;
35290;SDS011;21411;50.024;19.220;2023-09-30T13:47:10;14.30;;;11.80;;
35290;SDS011;21411;50.024;19.220;2023-09-30T13:49:36;13.70;;;12.10;;
35290;SDS011;21411;50.024;19.220;2023-09-30T13:52:03;13.90;;;12.50;;
35290;SDS011;21411;50.024;19.220;2023-09-30T13:54:30;13.30;;;11.60;;
35290;SDS011;21411;50.024;19.220;2023-09-30T13:56:56;14.00;;;11.90;;
35290;SDS011;21411;50.024;19.220;2023-09-30T13:59:23;16.90;;;12.60;;
35290;SDS011;21411;50.024;19.220;2023-09-30T14:01:49;12.50;;;11.20;;
35290;SDS011;21411;50.024;19.220;2023-09-30T14:04:16;13.10;;;11.70;;
35290;SDS011;21411;50.024;19.220;2023-09-30T14:06:43;13.50;;;12.00;;
35290;SDS011;21411;50.024;19.220;2023-09-30T14:09:09;13.30;;;11.60;;
35290;SDS011;21411;50.024;19.220;2023-09-30T14:11:41;14.20;;;11.20;;
35290;SDS011;21411;50.024;19.220;2023-09-30T14:14:08;14.00;;;10.90;;
35290;SDS011;21411;50.024;19.220;2023-09-30T14:16:37;11.30;;;10.20;;
35290;SDS011;21411;50.024;19.220;2023-09-30T14:19:04;12.50;;;10.40;;
35290;SDS011;21411;50.024;19.220;2023-09-30T14:21:30;11.50;;;9.30;;
35290;SDS011;21411;50.024;19.220;2023-09-30T14:23:58;11.20;;;10.00;;
35290;SDS011;21411;50.024;19.220;2023-09-30T14:26:24;10.40;;;9.40;;
35290;SDS011;21411;50.024;19.220;2023-09-30T14:28:51;11.50;;;8.80;;
35290;SDS011;21411;50.024;19.220;2023-09-30T14:31:18;12.60;;;8.60;;
35290;SDS011;21411;50.024;19.220;2023-09-30T14:33:44;10.80;;;8.30;;
35290;SDS011;21411;50.024;19.220;2023-09-30T14:36:11;9.90;;;8.70;;
35290;SDS011;21411;50.024;19.220;2023-09-30T14:38:37;8.70;;;7.80;;
35290;SDS011;21411;50.024;19.220;2023-09-30T14:41:07;9.30;;;8.20;;
35290;SDS011;21411;50.024;19.220;2023-09-30T14:43:34;9.50;;;8.30;;
35290;SDS011;21411;50.024;19.220;2023-09-30T14:46:01;14.40;;;9.70;;
35290;SDS011;21411;50.024;19.220;2023-09-30T14:48:29;10.70;;;9.60;;